TimeCST,TemperatureF,Dew PointF,Humidity,Sea Level PressureIn,VisibilityMPH,Wind Direction,Wind SpeedMPH,Gust SpeedMPH,PrecipitationIn,Events,Conditions,WindDirDegrees,DateUTC
12:15 AM,53.6,-9999,N/A,30.03,10.0,SE,6.9,-,N/A,,Overcast,140,2013-11-21 06:15:00
12:35 AM,53.6,-9999,N/A,30.02,10.0,SE,6.9,-,N/A,,Overcast,130,2013-11-21 06:35:00
12:55 AM,53.6,-9999,N/A,30.02,10.0,SE,8.1,-,N/A,,Overcast,130,2013-11-21 06:55:00
1:15 AM,53.6,-9999,N/A,30.02,10.0,SE,9.2,-,N/A,,Overcast,140,2013-11-21 07:15:00
1:35 AM,53.6,-9999,N/A,30.03,10.0,SE,9.2,-,N/A,,Overcast,140,2013-11-21 07:35:00
1:55 AM,53.6,-9999,N/A,30.05,10.0,Calm,Calm,-,N/A,,Overcast,0,2013-11-21 07:55:00
2:15 AM,53.6,-9999,N/A,30.05,10.0,SSE,4.6,-,N/A,,Overcast,160,2013-11-21 08:15:00
2:35 AM,53.6,-9999,N/A,30.05,9.0,SSE,4.6,-,N/A,Rain,Light Rain,160,2013-11-21 08:35:00
2:55 AM,50.0,-9999,N/A,30.06,4.0,South,3.5,-,0.05,Rain,Rain,170,2013-11-21 08:55:00
3:15 AM,48.2,-9999,N/A,30.05,5.0,SSE,3.5,-,0.02,Rain,Light Rain,150,2013-11-21 09:15:00
3:35 AM,48.2,-9999,N/A,30.05,10.0,Calm,Calm,-,0.03,Rain,Light Rain,0,2013-11-21 09:35:00
3:55 AM,46.4,-9999,N/A,30.04,9.0,Calm,Calm,-,0.04,Rain,Light Rain,0,2013-11-21 09:55:00
4:15 AM,48.2,-9999,N/A,30.04,5.0,SSE,5.8,-,0.01,Rain,Light Rain,150,2013-11-21 10:15:00
4:35 AM,48.2,-9999,N/A,30.04,7.0,SE,8.1,-,0.03,Rain,Light Rain,140,2013-11-21 10:35:00
4:55 AM,48.2,-9999,N/A,30.04,5.0,SE,9.2,-,0.05,Rain,Light Rain,130,2013-11-21 10:55:00
5:15 AM,48.2,-9999,N/A,30.05,3.0,SE,6.9,-,0.03,Rain,Light Rain,140,2013-11-21 11:15:00
5:35 AM,48.2,-9999,N/A,30.07,2.5,South,4.6,-,0.11,Rain,Rain,170,2013-11-21 11:35:00
6:48 AM,48.2,48.2,100,30.06,3.0,South,9.2,-,N/A,Rain,Light Rain,170,2013-11-21 12:48:00
7:55 AM,46.4,46.4,100,30.07,2.0,SSE,6.9,-,N/A,Rain,Light Rain,160,2013-11-21 13:55:00
8:46 AM,46.4,46.4,100,30.08,6.0,ESE,9.2,-,N/A,Rain,Light Rain,110,2013-11-21 14:46:00
9:51 AM,48.2,48.2,100,30.09,5.0,ESE,13.8,-,N/A,,Overcast,120,2013-11-21 15:51:00
10:55 AM,48.2,48.2,100,30.11,-9999.0,NNW,6.9,-,N/A,,Overcast,340,2013-11-21 16:55:00
11:49 AM,48.2,48.2,100,30.09,3.0,East,4.6,-,N/A,Rain,Rain,80,2013-11-21 17:49:00
12:45 PM,48.2,46.4,93,30.07,1.0,East,4.6,-,N/A,Rain-Thunderstorm,Thunderstorms and Rain,90,2013-11-21 18:45:00
1:46 PM,48.2,48.2,100,30.08,2.0,Calm,Calm,-,N/A,,Overcast,0,2013-11-21 19:46:00
2:50 PM,48.2,48.2,100,30.08,1.5,NNE,5.8,-,N/A,,Overcast,30,2013-11-21 20:50:00
3:45 PM,48.2,48.2,100,30.10,1.0,Calm,Calm,-,N/A,,Overcast,0,2013-11-21 21:45:00
4:45 PM,48.2,48.2,100,30.10,2.0,Calm,Calm,-,N/A,,Overcast,0,2013-11-21 22:45:00
5:50 PM,50.0,48.2,94,30.13,-9999.0,Calm,Calm,-,N/A,,Overcast,0,2013-11-21 23:50:00
6:45 PM,50.0,48.2,94,30.13,1.0,Calm,Calm,-,N/A,,Overcast,0,2013-11-22 00:45:00
7:47 PM,50.0,50.0,100,30.15,0.2,Calm,Calm,-,N/A,Fog,Fog,0,2013-11-22 01:47:00
8:15 PM,50.0,-9999,N/A,30.17,0.2,Calm,Calm,-,N/A,Fog,Fog,0,2013-11-22 02:15:00
8:35 PM,50.0,-9999,N/A,30.18,0.2,Calm,Calm,-,N/A,Fog,Fog,0,2013-11-22 02:35:00
8:45 PM,50.0,48.2,94,30.18,0.2,Calm,Calm,-,N/A,Fog,Fog,0,2013-11-22 02:45:00
8:55 PM,50.0,-9999,N/A,30.18,0.2,Calm,Calm,-,N/A,Fog,Fog,0,2013-11-22 02:55:00
9:15 PM,48.2,-9999,N/A,30.19,0.2,Calm,Calm,-,N/A,Fog,Fog,0,2013-11-22 03:15:00
9:35 PM,48.2,-9999,N/A,30.19,0.2,Calm,Calm,-,N/A,Fog,Fog,0,2013-11-22 03:35:00
9:55 PM,48.2,-9999,N/A,30.20,0.2,NW,4.6,-,N/A,Fog,Fog,320,2013-11-22 03:55:00
10:15 PM,48.2,-9999,N/A,30.21,0.2,NW,6.9,-,N/A,Fog,Fog,320,2013-11-22 04:15:00
10:35 PM,50.0,-9999,N/A,30.21,0.2,NW,4.6,-,N/A,Fog,Fog,320,2013-11-22 04:35:00
10:55 PM,50.0,-9999,N/A,30.20,0.2,Calm,Calm,-,N/A,Fog,Fog,0,2013-11-22 04:55:00
11:15 PM,50.0,-9999,N/A,30.21,0.2,NW,8.1,-,N/A,Fog,Fog,320,2013-11-22 05:15:00
11:35 PM,50.0,-9999,N/A,30.21,0.2,NNW,8.1,-,N/A,Fog,Fog,330,2013-11-22 05:35:00
11:55 PM,50.0,-9999,N/A,30.23,1.8,NNW,4.6,-,N/A,,Overcast,330,2013-11-22 05:55:00